Terminal Aerodrome Forecast
Issued by NWS

Home | Current Version | Previous Version | Text Only | Print | Product List | Glossary On
Versions: 1 2 3 4 5 6 7 8 9 10 11 12 13 14 15 16 17 18
620
FTUS43 KICT 261122
TAFRSL
TAF
KRSL 261122Z 2612/2712 21007KT P6SM SCT200
      TEMPO 2612/2613 4SM BR
     FM261900 35011KT P6SM OVC100
     FM262100 36017G25KT P6SM BKN100
     FM270100 35013KT P6SM FEW250
     FM270400 32008KT P6SM SKC=

USA.gov is the U.S. government's official web portal to all federal, state and local government web resources and services.